createdAt,value
2022-10-06T00:00:22.023Z,15.88
2022-10-06T00:05:24.686Z,15.89
2022-10-06T00:10:28.841Z,15.86
2022-10-06T00:15:32.948Z,15.94
2022-10-06T00:20:35.840Z,16.02
2022-10-06T00:25:40.012Z,15.98
2022-10-06T00:30:42.753Z,16.00
2022-10-06T00:35:46.053Z,15.97
2022-10-06T00:40:51.702Z,15.89
2022-10-06T00:45:54.489Z,15.92
2022-10-06T00:50:58.452Z,15.85
2022-10-06T00:56:02.558Z,15.74
2022-10-06T01:01:05.395Z,15.76
2022-10-06T01:06:08.795Z,15.80
2022-10-06T01:11:14.106Z,15.81
2022-10-06T01:16:23.208Z,15.80
2022-10-06T01:21:29.560Z,15.88
2022-10-06T01:26:34.959Z,15.91
2022-10-06T01:31:38.056Z,15.93
2022-10-06T01:36:42.143Z,15.92
2022-10-06T01:41:47.870Z,15.89
2022-10-06T01:46:51.351Z,15.81
2022-10-06T01:51:54.219Z,15.77
2022-10-06T01:56:58.251Z,15.70
2022-10-06T02:02:02.119Z,15.66
2022-10-06T02:07:05.390Z,15.64
2022-10-06T02:12:17.768Z,15.59
2022-10-06T02:17:21.118Z,15.47
2022-10-06T02:22:23.862Z,15.41
2022-10-06T02:27:28.134Z,15.40
2022-10-06T02:32:35.320Z,15.42
2022-10-06T02:37:38.280Z,15.42
2022-10-06T02:42:43.753Z,15.41
2022-10-06T02:47:46.495Z,15.43
2022-10-06T02:52:49.239Z,15.42
2022-10-06T02:57:55.124Z,15.45
2022-10-06T03:02:57.869Z,15.46
2022-10-06T03:08:00.570Z,15.50
2022-10-06T03:13:04.728Z,15.53
2022-10-06T03:18:07.747Z,15.60
2022-10-06T03:23:13.561Z,15.72
2022-10-06T03:28:18.519Z,15.86
2022-10-06T03:33:21.544Z,15.97
2022-10-06T03:38:24.272Z,16.03
2022-10-06T03:43:28.992Z,16.12
2022-10-06T03:48:33.468Z,16.13
2022-10-06T03:53:36.707Z,16.16
2022-10-06T03:58:42.096Z,16.16
2022-10-06T04:03:45.324Z,16.17
2022-10-06T04:08:49.934Z,16.20
2022-10-06T04:13:56.782Z,16.21
2022-10-06T04:19:01.139Z,16.21
2022-10-06T04:24:04.558Z,16.23
2022-10-06T04:29:09.059Z,16.25
2022-10-06T04:34:13.499Z,16.26
2022-10-06T04:39:17.379Z,16.26
2022-10-06T04:44:23.268Z,16.26
2022-10-06T04:49:26.554Z,16.22
2022-10-06T04:54:33.669Z,16.15
2022-10-06T04:59:56.336Z,16.14
2022-10-06T05:05:00.718Z,16.14
2022-10-06T05:10:03.625Z,16.14
2022-10-06T05:15:10.626Z,16.09
2022-10-06T05:20:13.410Z,15.97
2022-10-06T05:25:16.308Z,15.81
2022-10-06T05:30:20.999Z,15.72
2022-10-06T05:35:24.989Z,15.63
2022-10-06T05:40:28.360Z,15.53
2022-10-06T05:45:32.761Z,15.47
2022-10-06T05:50:35.509Z,15.31
2022-10-06T05:55:38.358Z,15.18
2022-10-06T06:00:42.477Z,15.10
2022-10-06T06:05:45.894Z,15.04
2022-10-06T06:10:48.854Z,15.00
2022-10-06T06:16:02.084Z,14.94
2022-10-06T06:21:07.697Z,15.01
2022-10-06T06:26:11.884Z,14.96
2022-10-06T06:31:22.401Z,14.81
2022-10-06T06:36:28.303Z,14.66
2022-10-06T06:41:32.961Z,14.63
2022-10-06T06:46:49.133Z,14.61
2022-10-06T06:51:54.488Z,14.56
2022-10-06T06:57:00.441Z,14.56
2022-10-06T07:02:04.803Z,14.56
2022-10-06T07:07:12.186Z,14.42
2022-10-06T07:12:15.005Z,14.34
2022-10-06T07:17:38.000Z,14.36
2022-10-06T07:22:58.063Z,14.44
2022-10-06T07:28:00.882Z,14.49
2022-10-06T07:33:09.561Z,14.55
2022-10-06T07:38:13.766Z,14.47
2022-10-06T07:43:23.291Z,14.49
2022-10-06T07:48:28.676Z,14.41
2022-10-06T07:53:39.053Z,14.47
2022-10-06T07:58:58.691Z,14.68
2022-10-06T08:04:06.665Z,14.85
2022-10-06T08:09:09.725Z,14.94
2022-10-06T08:14:15.072Z,15.04
2022-10-06T08:19:19.622Z,15.16
2022-10-06T08:24:22.271Z,15.26
2022-10-06T08:29:25.009Z,15.28
2022-10-06T08:34:29.019Z,15.40
2022-10-06T08:39:31.837Z,15.47
2022-10-06T08:44:40.607Z,15.61
2022-10-06T08:49:46.239Z,15.76
2022-10-06T08:54:54.029Z,15.93
2022-10-06T08:59:59.419Z,16.01
2022-10-06T09:05:05.541Z,16.04
2022-10-06T09:10:23.146Z,16.07
2022-10-06T09:15:32.046Z,15.97
2022-10-06T09:20:39.273Z,15.97
2022-10-06T09:25:41.961Z,16.08
2022-10-06T09:30:44.696Z,16.05
2022-10-06T09:36:06.304Z,16.21
2022-10-06T09:41:09.131Z,16.31
2022-10-06T09:46:22.551Z,16.25
2022-10-06T09:51:27.715Z,16.30
2022-10-06T09:56:30.666Z,16.45
2022-10-06T10:01:33.345Z,16.77
2022-10-06T10:06:37.390Z,17.08
2022-10-06T10:11:57.484Z,16.88
2022-10-06T10:17:08.758Z,16.82
2022-10-06T10:22:23.310Z,16.66
2022-10-06T10:27:31.674Z,16.37
2022-10-06T10:32:54.780Z,16.80
2022-10-06T10:38:01.994Z,16.79
2022-10-06T10:43:22.555Z,16.79
2022-10-06T10:48:31.478Z,17.17
2022-10-06T10:53:46.798Z,17.43
2022-10-06T10:58:51.494Z,17.40
2022-10-06T11:03:57.435Z,17.37
2022-10-06T11:09:04.805Z,18.07
2022-10-06T11:14:11.066Z,19.44
2022-10-06T11:19:23.025Z,22.67
2022-10-06T11:24:33.091Z,24.41
2022-10-06T11:29:42.018Z,27.95
2022-10-06T11:34:45.849Z,32.96
2022-10-06T11:39:58.632Z,33.09
2022-10-06T11:45:04.639Z,30.20
2022-10-06T11:50:33.162Z,26.58
2022-10-06T11:55:37.371Z,24.56
2022-10-06T12:00:48.196Z,26.00
2022-10-06T12:05:56.286Z,31.87
2022-10-06T12:11:00.787Z,34.90
2022-10-06T12:21:47.263Z,35.04
2022-10-06T12:26:56.534Z,30.74
2022-10-06T12:32:03.979Z,28.63
2022-10-06T12:37:44.435Z,27.85
2022-10-06T12:42:48.547Z,26.10
2022-10-06T12:47:51.330Z,26.22
2022-10-06T12:52:54.608Z,23.65
2022-10-06T12:57:59.115Z,23.91
2022-10-06T13:03:03.316Z,24.18
2022-10-06T13:08:07.786Z,22.60
2022-10-06T13:13:23.431Z,21.55
2022-10-06T13:18:26.373Z,21.82
2022-10-06T13:23:30.917Z,21.76
2022-10-06T13:28:49.128Z,21.21
2022-10-06T13:33:53.649Z,21.17
2022-10-06T13:38:56.506Z,21.21
2022-10-06T13:44:03.557Z,21.08
2022-10-06T13:49:14.616Z,20.90
2022-10-06T13:54:23.541Z,20.66
2022-10-06T13:59:38.461Z,20.12
2022-10-06T14:04:41.122Z,19.55
2022-10-06T14:09:44.037Z,19.15
2022-10-06T14:14:49.233Z,18.80
2022-10-06T14:19:52.081Z,18.72
2022-10-06T14:24:54.971Z,18.59
2022-10-06T14:29:59.166Z,18.47
2022-10-06T14:35:02.422Z,18.52
2022-10-06T14:40:10.138Z,18.57
2022-10-06T14:45:17.367Z,18.53
2022-10-06T14:50:20.132Z,18.72
2022-10-06T14:55:22.730Z,19.09
2022-10-06T15:00:28.940Z,19.74
2022-10-06T15:05:31.716Z,19.78
2022-10-06T15:10:36.013Z,22.46
2022-10-06T15:15:40.051Z,23.85
2022-10-06T15:20:42.712Z,27.10
2022-10-06T15:26:10.280Z,29.01
2022-10-06T15:31:14.486Z,30.34
2022-10-06T15:36:19.008Z,28.94
2022-10-06T15:41:22.216Z,26.85
2022-10-06T15:46:31.682Z,23.23
2022-10-06T15:51:37.176Z,21.07
2022-10-06T15:56:40.170Z,20.13
2022-10-06T16:01:47.070Z,19.43
2022-10-06T16:06:54.095Z,19.05
2022-10-06T16:11:57.704Z,18.78
2022-10-06T16:17:02.949Z,18.16
2022-10-06T16:22:06.931Z,17.92
2022-10-06T16:27:12.724Z,17.66
2022-10-06T16:32:17.213Z,17.33
2022-10-06T16:37:20.019Z,17.01
2022-10-06T16:42:22.682Z,16.67
2022-10-06T16:47:27.099Z,16.43
2022-10-06T16:52:29.858Z,16.28
2022-10-06T16:57:32.683Z,16.09
2022-10-06T17:02:38.632Z,15.80
2022-10-06T17:07:41.389Z,15.69
2022-10-06T17:12:44.042Z,15.58
2022-10-06T17:17:48.054Z,15.42
2022-10-06T17:22:51.362Z,15.23
2022-10-06T17:27:54.140Z,15.15
2022-10-06T17:32:58.388Z,15.08
2022-10-06T17:38:02.760Z,14.89
2022-10-06T17:43:05.475Z,14.67
2022-10-06T17:48:10.612Z,14.53
2022-10-06T17:53:14.671Z,14.45
2022-10-06T17:58:18.816Z,14.35
2022-10-06T18:03:26.502Z,14.29
2022-10-06T18:08:31.265Z,14.24
2022-10-06T18:13:33.977Z,14.15
2022-10-06T18:18:38.801Z,14.03
2022-10-06T18:23:43.397Z,13.83
2022-10-06T18:28:48.031Z,13.88
2022-10-06T18:39:15.965Z,13.68
2022-10-06T18:44:39.064Z,13.50
2022-10-06T18:49:43.034Z,13.51
2022-10-06T18:54:46.365Z,13.45
2022-10-06T18:59:49.236Z,13.37
2022-10-06T19:04:53.387Z,13.27
2022-10-06T19:09:56.010Z,13.13
2022-10-06T19:14:58.925Z,13.11
2022-10-06T19:20:02.940Z,13.08
2022-10-06T19:25:06.388Z,13.09
2022-10-06T19:30:09.437Z,12.98
2022-10-06T19:35:13.590Z,12.94
2022-10-06T19:40:16.426Z,12.94
2022-10-06T19:45:20.598Z,12.82
2022-10-06T19:50:25.124Z,12.76
2022-10-06T19:55:28.710Z,12.72
2022-10-06T20:00:31.593Z,12.59
2022-10-06T20:05:38.311Z,12.55
2022-10-06T20:10:40.939Z,12.55
2022-10-06T20:15:43.587Z,12.57
2022-10-06T20:20:58.718Z,12.37
2022-10-06T20:26:11.875Z,12.37
2022-10-06T20:31:19.277Z,12.27
2022-10-06T20:36:23.552Z,12.16
2022-10-06T20:41:26.538Z,12.14
2022-10-06T20:46:31.317Z,12.17
2022-10-06T20:51:36.924Z,12.11
2022-10-06T20:56:39.702Z,12.05
2022-10-06T21:01:42.426Z,12.04
2022-10-06T21:06:46.763Z,12.00
2022-10-06T21:11:49.587Z,11.93
2022-10-06T21:16:52.823Z,11.90
2022-10-06T21:21:56.823Z,11.91
2022-10-06T21:27:00.413Z,11.85
2022-10-06T21:32:03.082Z,11.75
2022-10-06T21:37:07.129Z,11.63
2022-10-06T21:42:10.056Z,11.61
2022-10-06T21:47:12.805Z,11.60
2022-10-06T21:52:16.896Z,11.60
2022-10-06T21:57:19.570Z,11.51
2022-10-06T22:02:22.277Z,11.51
2022-10-06T22:07:26.317Z,11.49
2022-10-06T22:12:28.937Z,11.31
2022-10-06T22:17:31.605Z,11.26
2022-10-06T22:22:35.621Z,11.28
2022-10-06T22:27:38.262Z,11.23
2022-10-06T22:32:40.917Z,11.25
2022-10-06T22:37:45.126Z,11.18
2022-10-06T22:42:48.061Z,11.13
2022-10-06T22:47:50.789Z,11.07
2022-10-06T22:52:54.844Z,11.04
2022-10-06T22:57:57.525Z,11.00
2022-10-06T23:03:00.305Z,11.01
2022-10-06T23:08:05.382Z,10.98
2022-10-06T23:13:08.114Z,10.99
2022-10-06T23:18:10.852Z,11.00
2022-10-06T23:23:14.827Z,10.95
2022-10-06T23:28:17.664Z,10.99
2022-10-06T23:33:20.739Z,10.81
2022-10-06T23:38:24.792Z,10.79
2022-10-06T23:43:27.596Z,10.65
2022-10-06T23:48:30.828Z,10.57
2022-10-06T23:53:35.931Z,10.47
2022-10-06T23:58:38.749Z,10.53
